Aérodrome :
LOGIN :

S'inscrire | Disclaimer

   EN    FR    IT 

 










Légende :    VFR   VFR Marginal   IFR   IFR Intensif   IFR Très Intensif
Visi : 
Plafond : 
>= 8 km
>= 3000ft
5 à 8 km
1000 à 3000 ft
1500m à 5 km
500 à 1000 ft
800 à 1500m
200 à 500 ft
< 800m
< 200 ft
Symboles :   Orages  Brouillard  Fortes neiges  Fortes précipitations  Vent > 20 kt
SIGMETs :   Divers  Orages  Givrage  Turbulence  Onde Orograph.  Cendres Volcan.






- Altitude de l'aérodrome : 13 ft
- Code IATA : SNR


LFRZ - St-Nazaire

DERNIER METAR :
  • 071300Z AUTO 20008KT 9000 BKN008 BKN012 BKN019 12/12 Q1019 BECMG SCT015 BKN040

METARs EXPIRÉS :
  • 071230Z AUTO 20009KT 9999 FEW010 12/11 Q1019 NOSIG
  • 071200Z AUTO 21008KT 9999 SCT007 SCT027 BKN040 12/12 Q1019 TEMPO 4000 -RA BKN005
  • 071130Z AUTO 21008KT 9999 FEW006 BKN038 12/12 Q1019 TEMPO 4000 -RA BKN005
  • 071100Z AUTO 18005KT 9999 FEW021 BKN040 BKN046 12/11 Q1020 NOSIG
  • 071030Z AUTO 21003KT 180V240 9999 FEW006 SCT019 BKN027 12/12 Q1020 NOSIG

TAF AMD TAF LFRZ
Valide du 07 à 13h jusqu'au 08 à 12h UTC


071311Z 0713/0812 25008KT 9999 SCT015 BKN040
PROB40
TEMPO 0713/0714 BKN008
BECMG 0800/0803 21016G28KT 4000 -RA BKN012
TEMPO 0803/0806 2500 RA BKN005
BECMG 0809/0811 29012KT



MET'MAP, la Météo Aéronautique d'un coup d'oeil ! - Copyright ORBIFLY Décembre 2007 - Disclaimer

ORBIFLY MET'MAP TEAM :

Programmation & Développement : Alexandra Zaïnal
Sur une idée originale de : Baudouin d'Aumeries
Assistance à la programmation : Marc-Olivier Méhu
Soutien technique & logistique : Manuel Goepfert

Contact : metmap@orbifly.com




SOURCES & CREDITS :

   NOAA